Terminal Aerodrome Forecast
Issued by NWS

Home | Current Version | Previous Version | Text Only | Print | Product List | Glossary On
Versions: 1 2 3 4 5 6 7 8 9 10 11 12 13 14 15 16 17
000
FTAK31 PAJN 181100
TAFASI
TAF
PASI 181126Z 1812/1912 12011G16KT P6SM -RA BKN025 OVC040
     FM181500 14013G21KT P6SM -RA BKN025 OVC040
     FM182100 15016G24KT P6SM -RA BKN025 OVC035 WS020/16035KT
     FM190400 12012KT 6SM -RA BR BKN020 OVC030=

USA.gov is the U.S. government's official web portal to all federal, state and local government web resources and services.